Time;durP1;ratioP1;P1;durP2;ratioP2;P2;SDS_P1;SDS_P2;PMS_P1;PMS_P2;Temp;Humidity;BMP_temperature;BMP_pressure;BME280_temperature;BME280_humidity;BME280_pressure;Samples;Min_cycle;Max_cycle;Signal;HPM_P1;HPM_P2
2021/04/21 00:02:05;;;;;;;10.45;7.88;;;;;;;2.60;67.15;93930.97;5011724;28;20132;-73
2021/04/21 00:04:31;;;;;;;12.13;7.70;;;;;;;2.55;67.88;93926.22;5011873;28;20038;-74
2021/04/21 00:07:27;;;;;;;11.13;8.13;;;;;;;2.48;67.29;93928.47;5011467;28;20034;-74
2021/04/21 00:09:53;;;;;;;11.68;7.90;;;;;;;2.47;67.83;93928.63;5008484;28;20049;-73
2021/04/21 00:12:29;;;;;;;11.30;7.95;;;;;;;2.34;69.46;93927.06;4979139;28;20076;-74
2021/04/21 00:15:00;;;;;;;12.68;8.20;;;;;;;2.40;67.95;93924.91;4981175;28;20034;-74
2021/04/21 00:17:36;;;;;;;12.70;7.53;;;;;;;2.39;68.08;93924.06;4966161;28;20038;-74
2021/04/21 00:20:11;;;;;;;13.18;8.50;;;;;;;2.23;69.37;93928.88;4969228;28;20089;-74
2021/04/21 00:22:36;;;;;;;11.20;8.15;;;;;;;2.12;69.50;93934.91;4940659;28;20038;-74
2021/04/21 00:25:02;;;;;;;10.75;7.60;;;;;;;2.19;68.17;93923.97;4972070;28;20087;-74
2021/04/21 00:27:29;;;;;;;12.20;8.77;;;;;;;2.15;69.63;93930.34;4954885;28;20039;-74
2021/04/21 00:30:07;;;;;;;11.57;7.97;;;;;;;2.19;68.06;93923.16;4956426;28;20031;-74
2021/04/21 00:32:36;;;;;;;14.45;8.23;;;;;;;2.23;69.15;93919.38;4975672;28;20038;-74
2021/04/21 00:35:02;;;;;;;11.65;7.75;;;;;;;2.23;68.58;93923.72;4955647;28;20105;-74
2021/04/21 00:37:29;;;;;;;12.00;8.23;;;;;;;2.11;69.69;93926.38;4966801;28;20034;-73
2021/04/21 00:39:56;;;;;;;12.00;8.23;;;;;;;2.08;69.46;93920.63;5000308;28;20045;-73
2021/04/21 00:42:46;;;;;;;13.93;8.00;;;;;;;2.03;70.60;93919.25;4945941;28;20097;-73
2021/04/21 00:45:22;;;;;;;14.70;9.15;;;;;;;2.02;70.45;93917.59;4994101;28;20053;-74
2021/04/21 00:48:13;;;;;;;12.20;8.40;;;;;;;2.06;70.47;93923.34;5031833;28;20024;-73
2021/04/21 00:51:02;;;;;;;11.50;7.80;;;;;;;2.06;70.29;93920.75;5032087;28;20116;-73
2021/04/21 00:53:34;;;;;;;10.98;7.95;;;;;;;2.01;70.65;93921.16;5029049;28;20052;-73
2021/04/21 00:56:30;;;;;;;14.55;9.10;;;;;;;1.87;70.54;93920.63;5039309;28;20051;-73
2021/04/21 00:59:42;;;;;;;12.07;8.55;;;;;;;1.87;70.14;93924.03;5066722;28;20089;-74
2021/04/21 01:02:09;;;;;;;13.35;8.30;;;;;;;1.93;70.00;93920.97;5007618;28;20125;-73
2021/04/21 01:04:44;;;;;;;11.70;8.00;;;;;;;1.94;70.32;93919.19;4978462;28;20102;-73
2021/04/21 01:07:10;;;;;;;14.45;8.20;;;;;;;1.97;69.72;93924.09;4995409;28;20085;-74
2021/04/21 01:09:35;;;;;;;14.73;9.05;;;;;;;1.92;70.61;93919.31;4999981;28;20026;-73
2021/04/21 01:12:12;;;;;;;14.25;8.95;;;;;;;1.82;70.15;93918.41;5001811;28;20044;-73
2021/04/21 01:14:43;;;;;;;11.88;7.93;;;;;;;1.84;69.71;93916.53;5018122;28;20104;-73
2021/04/21 01:17:10;;;;;;;12.60;8.50;;;;;;;1.80;70.12;93921.13;5000936;28;20026;-73
2021/04/21 01:19:55;;;;;;;12.32;8.20;;;;;;;1.78;70.59;93915.28;4999323;28;20117;-73
2021/04/21 01:22:50;;;;;;;13.55;7.95;;;;;;;1.65;70.94;93914.63;5023033;28;20048;-73
2021/04/21 01:25:38;;;;;;;13.82;8.25;;;;;;;1.59;71.16;93921.09;5017779;28;20044;-73
2021/04/21 01:28:19;;;;;;;15.00;8.43;;;;;;;1.61;70.52;93911.47;5014994;28;20048;-73
2021/04/21 01:31:14;;;;;;;12.15;8.65;;;;;;;1.55;70.41;93917.13;5006138;28;20040;-73
2021/04/21 01:33:39;;;;;;;14.20;8.85;;;;;;;1.42;71.58;93916.47;4941553;29;20039;-73
2021/04/21 01:36:15;;;;;;;13.98;8.98;;;;;;;1.30;72.19;93913.09;4942505;28;20062;-73
2021/04/21 01:39:22;;;;;;;13.13;8.50;;;;;;;1.39;71.41;93919.28;4942983;28;20129;-73
2021/04/21 01:42:16;;;;;;;12.32;8.68;;;;;;;1.33;71.23;93911.09;4902073;29;20031;-73
2021/04/21 01:44:53;;;;;;;12.52;8.40;;;;;;;1.23;72.36;93909.38;4907881;29;20071;-73
2021/04/21 01:47:43;;;;;;;11.52;8.27;;;;;;;1.33;71.73;93911.09;4902081;29;20048;-74
2021/04/21 01:50:12;;;;;;;13.48;8.38;;;;;;;1.37;71.60;93909.09;4938134;29;20036;-73
2021/04/21 01:52:37;;;;;;;12.88;9.13;;;;;;;1.41;71.39;93905.31;4892387;29;20054;-73
2021/04/21 01:55:09;;;;;;;12.68;7.97;;;;;;;1.41;71.22;93902.75;4926377;29;20039;-72
2021/04/21 01:57:42;;;;;;;15.32;8.63;;;;;;;1.35;71.45;93905.81;4902090;29;20050;-73
2021/04/21 02:00:10;;;;;;;14.30;8.27;;;;;;;1.29;71.21;93911.44;4911095;29;20035;-73
2021/04/21 02:02:37;;;;;;;11.95;8.38;;;;;;;1.33;70.93;93898.22;4920270;29;20051;-73
2021/04/21 02:05:45;;;;;;;13.38;8.73;;;;;;;1.36;71.28;93904.88;4920265;29;20055;-73
2021/04/21 02:08:14;;;;;;;12.23;8.55;;;;;;;1.33;70.76;93905.94;4903305;29;20034;-73
2021/04/21 02:11:06;;;;;;;12.07;7.85;;;;;;;1.33;71.61;93908.53;4929105;28;20063;-73
2021/04/21 02:14:11;;;;;;;13.18;8.25;;;;;;;1.31;70.93;93909.59;4939229;29;20046;-73
2021/04/21 02:16:42;;;;;;;12.88;8.18;;;;;;;1.31;71.36;93904.44;4960888;28;20035;-73
2021/04/21 02:19:31;;;;;;;13.25;8.40;;;;;;;1.29;71.67;93912.28;4955382;28;20106;-73
2021/04/21 02:22:38;;;;;;;13.02;8.23;;;;;;;1.24;71.44;93911.81;5018023;28;20028;-73
2021/04/21 02:25:22;;;;;;;11.65;8.02;;;;;;;1.15;72.86;93915.13;5037563;28;20079;-73
2021/04/21 02:27:51;;;;;;;13.60;8.55;;;;;;;1.20;72.46;93917.31;5034049;28;20032;-73
2021/04/21 02:30:17;;;;;;;;;;;;;;;1.09;72.61;93915.59;5051887;28;20032;-73
2021/04/21 02:33:14;;;;;;;14.02;8.60;;;;;;;1.18;71.33;93923.44;5055948;28;19909;-73
2021/04/21 02:36:03;;;;;;;12.52;8.30;;;;;;;1.17;71.58;93916.66;5060213;28;20032;-73
2021/04/21 02:38:55;;;;;;;12.65;8.30;;;;;;;1.18;71.79;93920.88;5058516;28;20082;-73
2021/04/21 02:41:44;;;;;;;12.88;8.32;;;;;;;1.11;71.54;93922.25;5062513;28;20021;-73
2021/04/21 02:44:25;;;;;;;;;;;;;;;1.08;70.62;93916.56;5019479;28;20052;-73
2021/04/21 02:47:03;;;;;;;13.48;8.88;;;;;;;1.09;71.54;93908.69;5050480;28;19908;-73
2021/04/21 02:49:53;;;;;;;13.48;9.25;;;;;;;0.97;72.59;93904.50;5033513;28;20037;-73
2021/04/21 02:52:21;;;;;;;14.13;8.43;;;;;;;1.01;71.82;93900.75;5033668;28;20056;-73
2021/04/21 02:55:22;;;;;;;11.93;8.23;;;;;;;1.02;71.96;93902.41;5044612;28;20099;-73
2021/04/21 02:58:05;;;;;;;13.77;8.95;;;;;;;1.00;72.31;93906.84;5015061;28;20080;-73
2021/04/21 03:00:57;;;;;;;12.35;8.25;;;;;;;0.94;72.51;93909.88;5015369;28;20087;-73
2021/04/21 03:03:35;;;;;;;16.17;9.65;;;;;;;0.89;72.83;93914.59;5001653;28;20021;-73
2021/04/21 03:06:10;;;;;;;14.43;8.83;;;;;;;0.87;72.42;93917.28;5004070;28;20040;-73
2021/04/21 03:09:07;;;;;;;14.02;8.88;;;;;;;0.83;72.97;93910.72;4980230;28;20037;-73
2021/04/21 03:11:33;;;;;;;13.15;8.82;;;;;;;0.84;72.51;93908.03;4998058;28;20036;-73
2021/04/21 03:14:19;;;;;;;12.00;8.43;;;;;;;0.80;73.15;93908.38;5012916;28;20031;-74
2021/04/21 03:17:12;;;;;;;12.73;8.25;;;;;;;0.84;72.70;93910.63;4998588;28;20032;-73
2021/04/21 03:20:01;;;;;;;14.85;8.98;;;;;;;0.81;72.50;93900.53;5031799;28;20151;-73
2021/04/21 03:22:52;;;;;;;13.52;9.20;;;;;;;0.75;73.10;93900.19;5008319;28;20025;-73
2021/04/21 03:25:38;;;;;;;14.02;8.75;;;;;;;0.72;72.84;93905.56;4987113;28;20625;-73
2021/04/21 03:28:06;;;;;;;15.35;10.02;;;;;;;0.62;73.47;93906.28;5005777;28;20033;-73
2021/04/21 03:30:33;;;;;;;15.43;8.82;;;;;;;0.64;73.12;93908.72;4992631;28;20037;-74
2021/04/21 03:33:45;;;;;;;13.77;9.07;;;;;;;0.67;73.27;93903.38;5006079;28;20037;-73
2021/04/21 03:36:17;;;;;;;16.83;10.48;;;;;;;0.59;74.53;93900.56;5018283;28;20052;-74
2021/04/21 03:39:02;;;;;;;14.05;9.40;;;;;;;0.63;74.47;93901.97;5005036;28;20385;-73
2021/04/21 03:41:30;;;;;;;13.82;9.35;;;;;;;0.62;73.56;93905.47;5045916;28;20025;-73
2021/04/21 03:43:55;;;;;;;12.82;8.52;;;;;;;0.71;73.43;93898.78;5032365;28;20056;-73
2021/04/21 03:46:23;;;;;;;13.85;8.70;;;;;;;0.69;73.08;93904.06;5041869;28;20029;-73
2021/04/21 03:48:56;;;;;;;13.63;9.73;;;;;;;0.62;73.34;93895.97;5036246;28;20108;-73
2021/04/21 03:51:23;;;;;;;13.27;8.88;;;;;;;0.60;73.46;93899.59;5032654;28;20038;-73
2021/04/21 03:53:51;;;;;;;14.10;9.10;;;;;;;0.64;73.69;93888.13;5039963;28;20103;-73
2021/04/21 03:56:18;;;;;;;16.05;10.27;;;;;;;0.65;73.48;93900.06;5044435;28;20033;-73
2021/04/21 03:58:52;;;;;;;14.40;9.73;;;;;;;0.67;73.08;93898.22;5034920;28;20044;-73
2021/04/21 04:01:23;;;;;;;13.45;9.35;;;;;;;0.68;73.27;93902.44;5041163;28;20032;-72
2021/04/21 04:03:53;;;;;;;13.93;8.65;;;;;;;0.63;72.07;93896.81;5055346;28;20024;-73
2021/04/21 04:06:23;;;;;;;12.93;8.20;;;;;;;0.62;73.02;93895.97;5072500;28;20060;-73
2021/04/21 04:09:00;;;;;;;12.82;8.15;;;;;;;0.63;72.52;93901.97;5049925;28;20084;-72
2021/04/21 04:11:29;;;;;;;22.58;9.45;;;;;;;0.44;73.53;93903.34;5042302;28;20036;-73
2021/04/21 04:14:01;;;;;;;14.55;9.18;;;;;;;0.44;73.23;93916.22;5018720;28;20052;-73
2021/04/21 04:16:48;;;;;;;11.82;8.40;;;;;;;0.42;72.84;93905.25;5049361;28;20092;-73
2021/04/21 04:19:22;;;;;;;13.55;9.07;;;;;;;0.40;73.69;93906.28;5017983;28;20032;-73
2021/04/21 04:21:55;;;;;;;14.90;9.63;;;;;;;0.37;73.81;93909.06;5055544;28;20058;-73
2021/04/21 04:24:25;;;;;;;13.80;8.65;;;;;;;0.46;72.62;93906.66;5021508;28;20032;-73
2021/04/21 04:26:50;;;;;;;13.32;8.30;;;;;;;0.48;72.87;93912.47;5030251;28;20079;-73
2021/04/21 04:29:18;;;;;;;13.18;8.23;;;;;;;0.47;73.13;93912.59;5034687;28;20100;-73
2021/04/21 04:31:56;;;;;;;12.70;8.35;;;;;;;0.50;73.08;93910.63;5034049;28;20050;-73
2021/04/21 04:34:22;;;;;;;13.63;8.52;;;;;;;0.54;72.69;93912.97;5033650;28;20029;-73
2021/04/21 04:36:50;;;;;;;12.63;8.27;;;;;;;0.54;72.30;93913.78;5051617;28;20032;-73
2021/04/21 04:39:16;;;;;;;16.27;9.02;;;;;;;0.55;73.00;93917.19;5035670;28;20621;-73
2021/04/21 04:41:41;;;;;;;13.23;9.18;;;;;;;0.61;73.38;93911.53;5034939;28;20050;-73
2021/04/21 04:44:10;;;;;;;15.45;8.77;;;;;;;0.68;72.69;93910.16;5035819;28;20026;-73
2021/04/21 04:46:45;;;;;;;17.00;8.95;;;;;;;0.71;72.05;93919.38;5037127;28;20033;-73
2021/04/21 04:49:12;;;;;;;16.38;9.73;;;;;;;0.72;73.04;93915.88;5036024;28;20033;-73
2021/04/21 04:51:39;;;;;;;15.48;9.48;;;;;;;0.73;73.51;93915.75;5036097;28;20119;-73
2021/04/21 04:54:07;;;;;;;14.50;7.75;;;;;;;0.82;72.89;93925.34;5025425;28;20104;-73
2021/04/21 04:56:36;;;;;;;12.35;8.20;;;;;;;0.82;73.19;93921.97;5039217;28;20025;-73
2021/04/21 04:59:02;;;;;;;13.50;8.30;;;;;;;0.87;72.92;93927.59;5055481;28;20025;-74
2021/04/21 05:02:01;;;;;;;13.35;8.40;;;;;;;0.90;72.32;93929.09;5041749;28;20060;-73
2021/04/21 05:04:39;;;;;;;13.02;8.25;;;;;;;0.95;72.39;93938.13;5001701;28;20056;-74
2021/04/21 05:07:08;;;;;;;15.68;9.73;;;;;;;0.97;73.27;93938.81;4982976;28;20145;-73
2021/04/21 05:09:42;;;;;;;13.65;8.63;;;;;;;1.10;72.00;93941.28;5009905;28;20083;-73
2021/04/21 05:12:21;;;;;;;16.90;9.55;;;;;;;1.23;71.55;93945.47;5001386;28;20116;-73
2021/04/21 05:14:47;;;;;;;12.95;8.85;;;;;;;1.28;71.51;93951.88;4984739;28;20044;-73
2021/04/21 05:17:57;;;;;;;18.10;9.95;;;;;;;1.32;72.19;93955.88;5004165;28;20128;-72
2021/04/21 05:20:52;;;;;;;16.58;8.52;;;;;;;1.46;71.61;93957.34;5016706;28;20439;-73
2021/04/21 05:23:21;;;;;;;13.82;8.88;;;;;;;1.54;71.44;93954.16;4998257;28;20107;-73
2021/04/21 05:26:43;;;;;;;15.45;8.35;;;;;;;1.62;70.70;93954.38;4997898;28;20030;-74
2021/04/21 05:29:51;;;;;;;15.57;8.60;;;;;;;1.74;71.21;93960.31;5001887;28;20034;-73
2021/04/21 05:33:02;;;;;;;13.70;8.45;;;;;;;1.89;71.25;93967.75;4983683;28;20026;-73
2021/04/21 05:36:05;;;;;;;12.90;9.00;;;;;;;2.03;71.14;93978.59;4986418;28;20038;-73
2021/04/21 05:42:49;;;;;;;13.52;8.35;;;;;;;2.51;70.04;93974.72;4980503;28;20126;-74
2021/04/21 05:45:49;;;;;;;12.75;7.78;;;;;;;2.52;69.26;93983.28;4961910;28;20042;-72
2021/04/21 05:48:55;;;;;;;17.02;8.30;;;;;;;2.55;69.76;93977.06;4953328;28;20026;-73
2021/04/21 05:51:26;;;;;;;12.00;7.95;;;;;;;2.72;68.99;93981.66;4956796;28;20078;-73
2021/04/21 05:54:15;;;;;;;13.32;8.35;;;;;;;2.86;68.98;93978.72;4962301;28;20038;-73
2021/04/21 05:56:40;;;;;;;13.82;7.78;;;;;;;2.95;68.78;93971.13;4951527;28;20030;-74
2021/04/21 05:59:32;;;;;;;12.73;7.95;;;;;;;3.07;68.89;93983.00;4959405;28;20377;-73
2021/04/21 06:02:03;;;;;;;14.25;8.32;;;;;;;3.21;69.00;93980.06;4956659;28;20228;-73
2021/04/21 06:04:28;;;;;;;12.20;8.13;;;;;;;3.32;68.48;93978.34;4944543;28;20130;-73
2021/04/21 06:07:09;;;;;;;10.57;7.72;;;;;;;3.47;68.11;93981.38;4938775;28;20042;-73
2021/04/21 06:09:39;;;;;;;14.18;8.52;;;;;;;3.62;67.31;93984.38;4937996;28;20082;-74
2021/04/21 06:12:22;;;;;;;12.23;7.57;;;;;;;3.79;66.49;93985.50;4947124;28;20043;-74
2021/04/21 06:14:49;;;;;;;12.82;8.32;;;;;;;3.92;67.60;93986.06;4964152;28;20153;-73
2021/04/21 06:17:29;;;;;;;11.00;7.90;;;;;;;3.96;65.67;93987.44;4966004;28;20051;-73
2021/04/21 06:20:04;;;;;;;12.35;8.43;;;;;;;4.03;66.06;93988.53;4979931;28;20114;-72
2021/04/21 06:22:34;;;;;;;13.95;10.05;;;;;;;4.09;66.93;93992.34;5027895;28;20039;-74
2021/04/21 06:25:24;;;;;;;14.02;9.63;;;;;;;4.23;67.49;94001.50;5041053;28;20028;-74
2021/04/21 06:27:49;;;;;;;13.05;9.07;;;;;;;4.43;65.70;93998.88;5055477;28;20315;-73
2021/04/21 06:30:22;;;;;;;14.48;8.65;;;;;;;4.61;64.43;93996.38;5028264;28;20026;-73
2021/04/21 06:33:01;;;;;;;13.65;7.90;;;;;;;4.80;63.84;93995.53;5038884;28;20100;-73
2021/04/21 06:35:33;;;;;;;;;;;;;;;4.95;63.12;93999.31;5041255;28;20021;-73
2021/04/21 06:38:01;;;;;;;13.95;8.07;;;;;;;5.14;62.41;94005.41;5053080;28;20410;-73
2021/04/21 06:40:39;;;;;;;10.90;7.65;;;;;;;5.29;62.72;93997.97;5058133;28;20020;-73
2021/04/21 06:43:08;;;;;;;13.90;8.05;;;;;;;5.43;62.39;94009.63;5018296;28;20040;-73
2021/04/21 06:46:02;;;;;;;;;;;;;;;5.65;62.13;94005.84;5034881;28;20069;-73
2021/04/21 06:49:01;;;;;;;11.63;7.75;;;;;;;5.80;61.77;94009.59;5015692;28;19913;-74
2021/04/21 06:51:31;;;;;;;14.15;7.70;;;;;;;5.96;60.50;94008.94;4983426;28;20026;-73
2021/04/21 06:53:56;;;;;;;10.15;7.72;;;;;;;6.12;59.57;94007.50;4986684;28;20101;-73
2021/04/21 06:56:39;;;;;;;10.75;7.20;;;;;;;6.21;59.24;94004.00;4971038;28;20058;-73
2021/04/21 06:59:05;;;;;;;10.82;6.82;;;;;;;6.35;58.81;94010.47;4959094;28;20054;-74
2021/04/21 07:01:33;;;;;;;9.43;7.38;;;;;;;6.42;58.80;94014.13;4947013;28;20081;-73
2021/04/21 07:04:19;;;;;;;9.88;7.00;;;;;;;6.68;59.50;94019.34;4952759;28;20029;-73
2021/04/21 07:06:53;;;;;;;10.18;7.57;;;;;;;6.77;59.29;94017.63;4979818;28;20041;-73
2021/04/21 07:09:20;;;;;;;10.95;6.82;;;;;;;6.90;58.29;94018.03;4967431;28;20054;-73
2021/04/21 07:12:00;;;;;;;9.90;7.45;;;;;;;6.90;59.71;94022.44;4976362;28;20076;-73
2021/04/21 07:14:29;;;;;;;12.13;7.72;;;;;;;6.80;58.23;94022.53;4962378;28;20041;-73
2021/04/21 07:17:03;;;;;;;12.20;8.35;;;;;;;6.89;58.65;94018.19;4974412;28;20038;-73
2021/04/21 07:19:28;;;;;;;10.70;8.23;;;;;;;7.00;58.05;94017.13;4960162;28;20034;-74
2021/04/21 07:21:54;;;;;;;12.73;8.73;;;;;;;7.24;58.73;94014.66;4945261;28;20046;-74
2021/04/21 07:24:43;;;;;;;11.50;8.20;;;;;;;7.25;58.97;94020.69;4976234;28;20041;-74
2021/04/21 07:27:09;;;;;;;11.85;8.23;;;;;;;7.31;57.79;94027.88;4995916;28;20030;-74
2021/04/21 07:29:36;;;;;;;11.35;7.88;;;;;;;7.23;57.85;94018.22;5047614;28;20017;-73
2021/04/21 07:32:19;;;;;;;12.07;8.20;;;;;;;7.67;61.47;94019.91;5043657;28;20107;-74
2021/04/21 07:35:05;;;;;;;11.55;8.20;;;;;;;7.58;57.13;94020.84;5030724;28;20048;-74
2021/04/21 07:37:39;;;;;;;13.75;8.35;;;;;;;7.70;56.34;94016.19;5036443;28;20025;-73
2021/04/21 07:40:28;;;;;;;10.43;8.00;;;;;;;7.62;56.38;94016.16;5059606;28;20025;-74
2021/04/21 07:43:21;;;;;;;13.05;7.47;;;;;;;7.84;56.15;94018.16;5037953;28;20049;-73
2021/04/21 07:45:54;;;;;;;9.52;7.97;;;;;;;7.80;54.76;94009.03;4991994;28;20042;-74
2021/04/21 07:48:38;;;;;;;9.60;7.65;;;;;;;7.83;55.76;94019.13;4992892;28;20045;-73
2021/04/21 07:51:28;;;;;;;13.35;9.45;;;;;;;8.00;56.22;94020.00;4994246;28;20080;-74
2021/04/21 07:54:21;;;;;;;10.30;8.02;;;;;;;8.04;54.65;94023.13;5011536;28;20032;-73
2021/04/21 07:57:10;;;;;;;9.40;7.43;;;;;;;8.04;54.87;94021.31;5012392;28;20038;-73
2021/04/21 07:59:47;;;;;;;10.48;7.43;;;;;;;8.36;55.23;94022.34;4974390;28;20022;-74
2021/04/21 08:02:16;;;;;;;10.43;8.02;;;;;;;8.41;54.62;94019.28;4993708;28;20029;-73
2021/04/21 08:04:50;;;;;;;14.15;7.60;;;;;;;8.57;55.09;94018.50;5002116;28;20034;-74
2021/04/21 08:07:36;;;;;;;9.63;7.70;;;;;;;8.39;54.65;94019.44;5003418;28;20102;-74
2021/04/21 08:10:08;;;;;;;10.50;7.40;;;;;;;8.83;53.67;94022.75;4994050;28;20038;-74
2021/04/21 08:12:51;;;;;;;10.43;7.35;;;;;;;8.83;52.86;94027.97;4989304;28;20039;-74
2021/04/21 08:15:56;;;;;;;10.95;8.05;;;;;;;8.61;51.78;94019.81;5003079;28;20037;-74
2021/04/21 08:18:22;;;;;;;10.50;7.70;;;;;;;8.90;52.79;94024.50;4963811;28;20031;-74
2021/04/21 08:20:53;;;;;;;13.75;8.40;;;;;;;8.74;52.78;94021.91;4956150;28;20134;-74
2021/04/21 08:23:28;;;;;;;11.43;8.43;;;;;;;8.76;52.92;94031.22;4960045;28;20042;-74
2021/04/21 08:26:26;;;;;;;10.27;7.45;;;;;;;9.22;52.58;94022.00;4977676;28;20050;-74
2021/04/21 08:29:00;;;;;;;17.33;7.55;;;;;;;8.97;50.80;94027.28;4973671;28;20049;-74
2021/04/21 08:31:27;;;;;;;12.02;7.05;;;;;;;9.18;49.22;94026.78;4958008;28;20118;-73
2021/04/21 08:34:02;;;;;;;8.38;6.63;;;;;;;9.31;49.19;94028.06;4958380;28;20046;-74
2021/04/21 08:36:39;;;;;;;8.18;6.50;;;;;;;9.48;47.94;94020.97;4973395;28;20033;-74
2021/04/21 08:39:14;;;;;;;8.85;6.75;;;;;;;9.53;48.09;94019.47;4989608;28;20125;-74
2021/04/21 08:42:15;;;;;;;10.15;6.88;;;;;;;9.74;47.78;94028.56;4955139;28;20034;-73
2021/04/21 08:44:43;;;;;;;9.07;6.20;;;;;;;10.04;45.78;94013.88;4946097;28;20023;-74
2021/04/21 08:47:14;;;;;;;10.93;6.82;;;;;;;10.00;46.97;94022.25;4965855;28;20042;-74
2021/04/21 08:49:41;;;;;;;10.20;7.53;;;;;;;9.89;46.66;94021.63;4926438;28;20034;-74
2021/04/21 08:52:48;;;;;;;9.45;6.72;;;;;;;10.18;45.97;94024.59;4935790;28;20069;-73
2021/04/21 08:55:16;;;;;;;12.02;7.85;;;;;;;9.85;46.17;94015.13;4963775;28;20042;-74
2021/04/21 08:57:43;;;;;;;12.50;7.65;;;;;;;10.50;47.11;94023.63;4948696;28;20038;-73
2021/04/21 09:00:12;;;;;;;10.32;7.38;;;;;;;10.98;44.63;94020.78;4956886;28;20031;-74
2021/04/21 09:02:42;;;;;;;11.53;7.67;;;;;;;10.97;45.51;94022.59;4953012;28;20126;-74
2021/04/21 09:05:10;;;;;;;11.77;7.70;;;;;;;10.91;45.50;94022.50;4945802;28;20289;-74
2021/04/21 09:07:38;;;;;;;14.75;8.77;;;;;;;11.11;44.94;94020.16;4962543;28;20023;-73
2021/04/21 09:10:14;;;;;;;12.85;8.32;;;;;;;11.20;45.35;94019.09;4968059;28;20039;-74
2021/04/21 09:12:41;;;;;;;12.70;9.30;;;;;;;11.02;44.84;94026.50;4932856;28;20038;-74
2021/04/21 09:15:27;;;;;;;13.52;10.18;;;;;;;10.76;45.10;94019.84;4954295;28;20061;-74
2021/04/21 09:17:55;;;;;;;14.75;11.75;;;;;;;11.05;45.63;94020.88;4963040;28;20100;-74
2021/04/21 09:20:51;;;;;;;14.73;8.75;;;;;;;11.64;44.28;94022.72;4980839;28;20049;-74
2021/04/21 09:23:19;;;;;;;15.60;10.65;;;;;;;11.56;44.16;94017.59;4955757;28;20057;-74
2021/04/21 09:26:17;;;;;;;12.98;9.43;;;;;;;11.57;42.62;94019.22;4964152;28;20025;-74
2021/04/21 09:28:44;;;;;;;12.82;9.25;;;;;;;11.61;44.15;94023.94;4905514;29;20124;-74
2021/04/21 09:31:29;;;;;;;14.48;8.90;;;;;;;11.55;43.65;94019.41;4868143;29;20039;-74
2021/04/21 09:34:11;;;;;;;11.70;8.43;;;;;;;11.94;43.52;94013.09;4914739;29;20047;-74
2021/04/21 09:37:25;;;;;;;10.85;8.55;;;;;;;12.20;42.60;94014.38;4902249;29;20040;-75
2021/04/21 09:40:33;;;;;;;13.00;9.27;;;;;;;11.60;43.19;94014.44;4857787;29;20124;-74
2021/04/21 09:43:35;;;;;;;12.98;9.10;;;;;;;11.50;42.56;94019.13;4842773;29;20106;-74
2021/04/21 09:46:03;;;;;;;13.13;9.40;;;;;;;12.24;43.71;94014.81;4811883;29;20629;-74
2021/04/21 09:48:47;;;;;;;11.80;8.18;;;;;;;12.03;42.31;94019.03;4809836;29;20050;-74
2021/04/21 09:51:29;;;;;;;13.25;8.57;;;;;;;12.21;40.31;94020.44;4809892;29;20050;-74
2021/04/21 09:53:54;;;;;;;13.73;8.70;;;;;;;12.63;42.40;94024.09;4797521;29;20050;-75
2021/04/21 09:56:23;;;;;;;12.93;8.23;;;;;;;13.26;42.56;94024.22;4800769;29;20059;-74
2021/04/21 09:59:07;;;;;;;12.30;9.05;;;;;;;12.91;39.76;94023.34;4800729;29;20030;-74
2021/04/21 10:01:53;;;;;;;12.55;9.15;;;;;;;12.75;41.50;94016.53;4876928;29;20032;-74
2021/04/21 10:04:27;;;;;;;11.88;8.13;;;;;;;13.03;39.42;94015.75;4904220;29;20051;-75
2021/04/21 10:07:01;;;;;;;13.10;9.18;;;;;;;12.87;41.55;94019.47;4928828;29;20036;-75
2021/04/21 10:10:03;;;;;;;12.48;8.60;;;;;;;12.98;40.53;94014.50;4900142;29;20042;-73
2021/04/21 10:12:32;;;;;;;12.48;8.50;;;;;;;13.49;40.38;94010.88;4885467;29;20051;-74
2021/04/21 10:15:10;;;;;;;13.05;9.10;;;;;;;13.33;40.09;94011.16;4853073;29;20045;-74
2021/04/21 10:18:06;;;;;;;12.60;9.07;;;;;;;13.59;40.10;94012.34;4845938;29;20050;-74
2021/04/21 10:20:32;;;;;;;12.90;8.55;;;;;;;13.50;38.82;94001.16;4845688;29;20037;-74
2021/04/21 10:23:00;;;;;;;12.02;8.45;;;;;;;14.01;38.17;94005.28;4875075;29;20052;-74
2021/04/21 10:25:36;;;;;;;13.40;8.73;;;;;;;14.55;41.91;94000.97;4848436;29;20068;-74
2021/04/21 10:28:04;;;;;;;12.07;8.65;;;;;;;14.73;39.37;94007.50;4863679;29;20041;-74
2021/04/21 10:30:40;;;;;;;12.27;8.75;;;;;;;15.17;40.98;94008.75;4848285;29;20034;-75
2021/04/21 10:33:08;;;;;;;15.05;9.00;;;;;;;14.56;40.89;94002.56;4864073;29;20101;-75
2021/04/21 10:35:35;;;;;;;12.25;8.63;;;;;;;15.28;39.93;94005.47;4861274;29;20040;-74
2021/04/21 10:38:01;;;;;;;10.55;8.07;;;;;;;15.38;40.89;93999.00;4864110;29;20041;-74
2021/04/21 10:40:37;;;;;;;11.65;8.70;;;;;;;15.50;40.30;93997.34;4848424;29;20029;-74
2021/04/21 10:43:04;;;;;;;12.13;8.60;;;;;;;16.36;36.50;93995.47;4844927;29;20073;-75
2021/04/21 10:45:44;;;;;;;13.50;8.55;;;;;;;16.80;36.57;93993.78;4852952;29;20138;-75
2021/04/21 10:48:11;;;;;;;11.85;8.52;;;;;;;16.86;38.31;93992.94;4905724;29;20156;-74
2021/04/21 10:50:43;;;;;;;11.73;8.90;;;;;;;17.04;37.00;93992.22;4903823;29;20054;-74
2021/04/21 10:53:22;;;;;;;12.13;8.88;;;;;;;17.27;35.25;93990.81;4920449;29;20076;-74
2021/04/21 10:55:47;;;;;;;11.52;9.20;;;;;;;16.59;38.57;93980.91;4922507;28;20028;-74
2021/04/21 10:58:13;;;;;;;11.32;8.55;;;;;;;17.40;38.19;93994.34;5017110;28;20029;-74
2021/04/21 11:00:46;;;;;;;11.18;8.50;;;;;;;17.57;36.37;93976.91;5016182;28;20037;-75
2021/04/21 11:03:13;;;;;;;11.52;8.77;;;;;;;18.18;33.64;93969.09;5036209;28;20095;-74
2021/04/21 11:05:42;;;;;;;11.23;8.38;;;;;;;17.93;33.70;93977.94;5005543;28;20036;-74
2021/04/21 11:08:20;;;;;;;10.88;9.07;;;;;;;17.45;33.85;93982.09;5055826;28;20048;-74
2021/04/21 11:11:04;;;;;;;11.38;8.77;;;;;;;17.62;34.70;93970.94;5044457;28;20041;-74
2021/04/21 11:13:43;;;;;;;11.82;9.35;;;;;;;18.37;33.84;93968.03;5016654;28;20036;-74
2021/04/21 11:16:39;;;;;;;12.52;9.77;;;;;;;18.70;34.71;93969.41;5016178;28;20056;-74
2021/04/21 11:19:55;;;;;;;13.68;9.38;;;;;;;18.54;35.76;93967.41;5016089;28;20087;-75
2021/04/21 11:22:32;;;;;;;16.10;9.70;;;;;;;18.06;34.98;93958.47;5012273;28;20042;-75
2021/04/21 11:25:22;;;;;;;15.13;9.13;;;;;;;18.71;34.50;93963.09;4995812;28;20052;-75
2021/04/21 11:28:40;;;;;;;14.80;10.27;;;;;;;19.37;36.65;93965.72;4991974;28;20110;-75
2021/04/21 11:31:22;;;;;;;13.10;9.07;;;;;;;19.08;30.84;93969.28;4959094;28;20043;-74
2021/04/21 11:34:27;;;;;;;13.40;9.73;;;;;;;19.41;29.66;93960.78;4941007;28;20498;-74
2021/04/21 11:37:07;;;;;;;13.63;9.25;;;;;;;20.00;32.53;93955.41;4954084;29;20121;-74
2021/04/21 11:39:44;;;;;;;12.80;9.30;;;;;;;20.43;33.19;93953.31;4953722;28;20093;-74
2021/04/21 11:42:19;;;;;;;24.17;12.93;;;;;;;19.99;30.93;93948.50;4953362;29;20062;-75
2021/04/21 11:44:53;;;;;;;14.02;10.18;;;;;;;19.65;28.90;93953.59;4952486;29;20114;-74
2021/04/21 11:47:45;;;;;;;11.52;9.32;;;;;;;21.14;27.98;93958.25;4953647;28;20492;-75
2021/04/21 11:50:20;;;;;;;20.35;9.90;;;;;;;20.63;27.25;93941.41;4953674;29;20037;-75
2021/04/21 11:53:10;;;;;;;11.48;9.13;;;;;;;20.50;27.93;93943.31;4937508;29;20035;-75
2021/04/21 11:55:44;;;;;;;12.30;9.35;;;;;;;21.29;26.20;93941.72;4953490;29;20128;-75
2021/04/21 11:58:25;;;;;;;11.25;8.63;;;;;;;21.53;24.43;93937.03;4958360;28;20035;-74
2021/04/21 12:01:10;;;;;;;10.55;7.78;;;;;;;21.94;25.99;93936.78;4956411;28;20084;-74
2021/04/21 12:03:48;;;;;;;10.02;8.40;;;;;;;20.97;28.66;93937.00;4940423;28;20066;-75
2021/04/21 12:06:17;;;;;;;13.90;9.57;;;;;;;21.80;26.73;93927.53;4984478;28;20066;-75
2021/04/21 12:08:47;;;;;;;12.45;8.27;;;;;;;21.84;24.04;93926.81;4995564;28;20037;-75
2021/04/21 12:11:13;;;;;;;12.13;8.15;;;;;;;23.50;25.12;93937.19;4995955;28;20030;-75
2021/04/21 12:13:44;;;;;;;13.23;8.77;;;;;;;23.26;22.37;93929.56;5050674;28;20044;-75
2021/04/21 12:16:14;;;;;;;11.45;8.02;;;;;;;23.52;21.83;93935.06;5037753;28;20020;-75
2021/04/21 12:18:43;;;;;;;10.30;8.27;;;;;;;23.43;22.32;93935.56;5052357;28;20024;-74
2021/04/21 12:21:23;;;;;;;;;;;;;;;23.71;22.63;93922.88;5036795;28;20039;-74
2021/04/21 12:24:09;;;;;;;11.20;8.35;;;;;;;24.21;25.89;93922.59;5035404;28;19963;-76
2021/04/21 12:26:37;;;;;;;9.05;7.75;;;;;;;24.31;21.87;93921.84;5035557;28;20029;-76
2021/04/21 12:29:20;;;;;;;12.85;6.85;;;;;;;23.95;21.99;93925.19;5034604;28;20072;-75